sensor_id;sensor_type;location;lat;lon;timestamp;P1;durP1;ratioP1;P2;durP2;ratioP2
52816;SDS011;38687;43.330;21.924;2023-01-24T00:01:32;3.33;;;2.60;;
52816;SDS011;38687;43.330;21.924;2023-01-24T00:03:57;7.30;;;3.00;;
52816;SDS011;38687;43.330;21.924;2023-01-24T00:06:22;5.20;;;3.15;;
52816;SDS011;38687;43.330;21.924;2023-01-24T00:08:48;5.38;;;3.15;;
52816;SDS011;38687;43.330;21.924;2023-01-24T00:11:13;5.50;;;2.75;;
52816;SDS011;38687;43.330;21.924;2023-01-24T00:13:39;6.30;;;2.95;;
52816;SDS011;38687;43.330;21.924;2023-01-24T00:16:05;5.80;;;3.28;;
52816;SDS011;38687;43.330;21.924;2023-01-24T00:18:31;5.45;;;2.60;;
52816;SDS011;38687;43.330;21.924;2023-01-24T00:21:08;4.40;;;2.10;;
52816;SDS011;38687;43.330;21.924;2023-01-24T00:23:35;6.00;;;3.13;;
52816;SDS011;38687;43.330;21.924;2023-01-24T00:26:03;7.43;;;4.20;;
52816;SDS011;38687;43.330;21.924;2023-01-24T00:28:29;10.18;;;4.10;;
52816;SDS011;38687;43.330;21.924;2023-01-24T00:30:57;9.13;;;3.47;;
52816;SDS011;38687;43.330;21.924;2023-01-24T00:33:22;6.97;;;3.13;;
52816;SDS011;38687;43.330;21.924;2023-01-24T00:35:51;8.18;;;4.03;;
52816;SDS011;38687;43.330;21.924;2023-01-24T00:38:16;3.97;;;2.35;;
52816;SDS011;38687;43.330;21.924;2023-01-24T00:40:44;5.25;;;3.50;;
52816;SDS011;38687;43.330;21.924;2023-01-24T00:43:17;4.80;;;2.80;;
52816;SDS011;38687;43.330;21.924;2023-01-24T00:45:43;7.55;;;3.58;;
52816;SDS011;38687;43.330;21.924;2023-01-24T00:48:09;5.72;;;2.97;;
52816;SDS011;38687;43.330;21.924;2023-01-24T00:53:10;4.38;;;2.75;;
52816;SDS011;38687;43.330;21.924;2023-01-24T00:55:45;6.25;;;3.72;;
52816;SDS011;38687;43.330;21.924;2023-01-24T00:58:10;3.97;;;2.08;;
52816;SDS011;38687;43.330;21.924;2023-01-24T01:00:36;4.70;;;2.88;;
52816;SDS011;38687;43.330;21.924;2023-01-24T01:03:03;3.42;;;2.22;;
52816;SDS011;38687;43.330;21.924;2023-01-24T01:05:29;2.88;;;2.00;;
52816;SDS011;38687;43.330;21.924;2023-01-24T01:07:59;2.75;;;1.90;;
52816;SDS011;38687;43.330;21.924;2023-01-24T01:10:28;3.22;;;1.98;;
52816;SDS011;38687;43.330;21.924;2023-01-24T01:12:53;3.47;;;1.92;;
52816;SDS011;38687;43.330;21.924;2023-01-24T01:15:26;1.85;;;1.17;;
52816;SDS011;38687;43.330;21.924;2023-01-24T01:17:51;3.25;;;1.52;;
52816;SDS011;38687;43.330;21.924;2023-01-24T01:20:22;2.90;;;1.45;;
52816;SDS011;38687;43.330;21.924;2023-01-24T01:22:47;3.35;;;2.00;;
52816;SDS011;38687;43.330;21.924;2023-01-24T01:25:15;1.98;;;1.15;;
52816;SDS011;38687;43.330;21.924;2023-01-24T01:27:40;1.95;;;1.27;;
52816;SDS011;38687;43.330;21.924;2023-01-24T01:30:06;1.73;;;1.23;;
52816;SDS011;38687;43.330;21.924;2023-01-24T01:32:31;2.60;;;1.38;;
52816;SDS011;38687;43.330;21.924;2023-01-24T01:35:00;2.65;;;1.52;;
52816;SDS011;38687;43.330;21.924;2023-01-24T01:37:28;2.75;;;1.50;;
52816;SDS011;38687;43.330;21.924;2023-01-24T01:39:53;4.15;;;2.00;;
52816;SDS011;38687;43.330;21.924;2023-01-24T01:42:18;2.70;;;1.63;;
52816;SDS011;38687;43.330;21.924;2023-01-24T01:44:43;2.67;;;1.60;;
52816;SDS011;38687;43.330;21.924;2023-01-24T01:47:17;2.78;;;1.80;;
52816;SDS011;38687;43.330;21.924;2023-01-24T01:49:46;3.50;;;1.50;;
52816;SDS011;38687;43.330;21.924;2023-01-24T01:52:11;2.08;;;1.20;;
52816;SDS011;38687;43.330;21.924;2023-01-24T01:54:40;3.17;;;1.50;;
52816;SDS011;38687;43.330;21.924;2023-01-24T01:57:17;2.60;;;1.48;;
52816;SDS011;38687;43.330;21.924;2023-01-24T01:59:43;1.38;;;0.95;;
52816;SDS011;38687;43.330;21.924;2023-01-24T02:02:11;2.80;;;1.20;;
52816;SDS011;38687;43.330;21.924;2023-01-24T02:04:39;2.42;;;1.40;;
52816;SDS011;38687;43.330;21.924;2023-01-24T02:09:33;2.43;;;1.10;;
52816;SDS011;38687;43.330;21.924;2023-01-24T02:12:00;1.42;;;1.20;;
52816;SDS011;38687;43.330;21.924;2023-01-24T02:14:29;2.40;;;1.45;;
52816;SDS011;38687;43.330;21.924;2023-01-24T02:17:23;1.52;;;1.05;;
52816;SDS011;38687;43.330;21.924;2023-01-24T02:19:58;3.22;;;1.00;;
52816;SDS011;38687;43.330;21.924;2023-01-24T02:25:00;1.52;;;1.35;;
52816;SDS011;38687;43.330;21.924;2023-01-24T02:27:27;1.77;;;1.10;;
52816;SDS011;38687;43.330;21.924;2023-01-24T02:29:53;1.33;;;1.20;;
52816;SDS011;38687;43.330;21.924;2023-01-24T02:32:18;0.90;;;0.82;;
52816;SDS011;38687;43.330;21.924;2023-01-24T02:34:45;2.17;;;1.30;;
52816;SDS011;38687;43.330;21.924;2023-01-24T02:37:12;2.80;;;1.33;;
52816;SDS011;38687;43.330;21.924;2023-01-24T02:39:53;2.72;;;1.20;;
52816;SDS011;38687;43.330;21.924;2023-01-24T02:42:20;2.15;;;1.10;;
52816;SDS011;38687;43.330;21.924;2023-01-24T02:44:52;2.20;;;1.20;;
52816;SDS011;38687;43.330;21.924;2023-01-24T02:47:22;2.72;;;1.55;;
52816;SDS011;38687;43.330;21.924;2023-01-24T02:49:47;1.75;;;1.05;;
52816;SDS011;38687;43.330;21.924;2023-01-24T02:52:13;3.65;;;1.95;;
52816;SDS011;38687;43.330;21.924;2023-01-24T02:54:56;2.78;;;1.40;;
52816;SDS011;38687;43.330;21.924;2023-01-24T02:57:22;2.42;;;1.40;;
52816;SDS011;38687;43.330;21.924;2023-01-24T03:00:06;1.92;;;1.00;;
52816;SDS011;38687;43.330;21.924;2023-01-24T03:02:32;2.10;;;1.15;;
52816;SDS011;38687;43.330;21.924;2023-01-24T03:04:57;2.45;;;1.20;;
52816;SDS011;38687;43.330;21.924;2023-01-24T03:07:24;2.45;;;1.10;;
52816;SDS011;38687;43.330;21.924;2023-01-24T03:09:49;1.95;;;1.00;;
52816;SDS011;38687;43.330;21.924;2023-01-24T03:12:14;4.07;;;1.40;;
52816;SDS011;38687;43.330;21.924;2023-01-24T03:14:59;3.30;;;1.27;;
52816;SDS011;38687;43.330;21.924;2023-01-24T03:17:46;1.98;;;1.10;;
52816;SDS011;38687;43.330;21.924;2023-01-24T03:20:30;1.38;;;0.98;;
52816;SDS011;38687;43.330;21.924;2023-01-24T03:23:14;1.83;;;1.33;;
52816;SDS011;38687;43.330;21.924;2023-01-24T03:25:59;1.23;;;1.10;;
52816;SDS011;38687;43.330;21.924;2023-01-24T03:28:43;1.92;;;1.05;;
52816;SDS011;38687;43.330;21.924;2023-01-24T03:31:27;1.00;;;0.95;;
52816;SDS011;38687;43.330;21.924;2023-01-24T03:34:15;2.95;;;1.00;;
52816;SDS011;38687;43.330;21.924;2023-01-24T03:37:00;1.98;;;1.00;;
52816;SDS011;38687;43.330;21.924;2023-01-24T03:39:31;1.75;;;0.80;;
52816;SDS011;38687;43.330;21.924;2023-01-24T03:42:14;1.58;;;0.95;;
52816;SDS011;38687;43.330;21.924;2023-01-24T03:44:40;1.50;;;0.82;;
52816;SDS011;38687;43.330;21.924;2023-01-24T03:47:05;1.30;;;0.90;;
52816;SDS011;38687;43.330;21.924;2023-01-24T03:49:30;1.30;;;0.95;;
52816;SDS011;38687;43.330;21.924;2023-01-24T03:52:14;1.85;;;1.00;;
52816;SDS011;38687;43.330;21.924;2023-01-24T03:54:58;1.85;;;1.00;;
52816;SDS011;38687;43.330;21.924;2023-01-24T03:57:27;1.98;;;1.30;;
52816;SDS011;38687;43.330;21.924;2023-01-24T04:00:06;2.58;;;1.60;;
52816;SDS011;38687;43.330;21.924;2023-01-24T04:02:35;2.75;;;1.05;;
52816;SDS011;38687;43.330;21.924;2023-01-24T04:05:00;1.58;;;0.93;;
52816;SDS011;38687;43.330;21.924;2023-01-24T04:07:37;2.42;;;0.93;;
52816;SDS011;38687;43.330;21.924;2023-01-24T04:10:03;2.13;;;1.27;;
52816;SDS011;38687;43.330;21.924;2023-01-24T04:12:34;2.10;;;0.95;;
52816;SDS011;38687;43.330;21.924;2023-01-24T04:14:59;1.88;;;1.00;;
52816;SDS011;38687;43.330;21.924;2023-01-24T04:17:28;3.42;;;1.17;;
52816;SDS011;38687;43.330;21.924;2023-01-24T04:19:53;1.73;;;1.20;;
52816;SDS011;38687;43.330;21.924;2023-01-24T04:22:18;2.83;;;1.40;;
52816;SDS011;38687;43.330;21.924;2023-01-24T04:24:44;3.80;;;1.60;;
52816;SDS011;38687;43.330;21.924;2023-01-24T04:27:09;1.45;;;0.90;;
52816;SDS011;38687;43.330;21.924;2023-01-24T04:29:35;2.00;;;1.10;;
52816;SDS011;38687;43.330;21.924;2023-01-24T04:32:00;1.80;;;1.05;;
52816;SDS011;38687;43.330;21.924;2023-01-24T04:34:25;3.30;;;1.97;;
52816;SDS011;38687;43.330;21.924;2023-01-24T04:36:53;2.85;;;1.88;;
52816;SDS011;38687;43.330;21.924;2023-01-24T04:39:19;2.47;;;1.40;;
52816;SDS011;38687;43.330;21.924;2023-01-24T04:41:44;2.33;;;1.30;;
52816;SDS011;38687;43.330;21.924;2023-01-24T04:44:09;3.80;;;1.80;;
52816;SDS011;38687;43.330;21.924;2023-01-24T04:46:35;5.57;;;2.00;;
52816;SDS011;38687;43.330;21.924;2023-01-24T04:49:00;3.28;;;1.50;;
52816;SDS011;38687;43.330;21.924;2023-01-24T04:51:25;2.53;;;1.63;;
52816;SDS011;38687;43.330;21.924;2023-01-24T04:53:50;2.53;;;1.73;;
52816;SDS011;38687;43.330;21.924;2023-01-24T04:56:16;1.73;;;1.20;;
52816;SDS011;38687;43.330;21.924;2023-01-24T04:58:44;2.33;;;1.33;;
52816;SDS011;38687;43.330;21.924;2023-01-24T05:01:09;3.40;;;1.33;;
52816;SDS011;38687;43.330;21.924;2023-01-24T05:03:34;1.63;;;1.33;;
52816;SDS011;38687;43.330;21.924;2023-01-24T05:05:59;2.73;;;1.50;;
52816;SDS011;38687;43.330;21.924;2023-01-24T05:08:25;1.73;;;1.20;;
52816;SDS011;38687;43.330;21.924;2023-01-24T05:10:52;1.75;;;1.20;;
52816;SDS011;38687;43.330;21.924;2023-01-24T05:13:18;2.53;;;1.50;;
52816;SDS011;38687;43.330;21.924;2023-01-24T05:15:48;2.75;;;1.40;;
52816;SDS011;38687;43.330;21.924;2023-01-24T05:18:14;4.53;;;1.67;;
52816;SDS011;38687;43.330;21.924;2023-01-24T05:20:39;3.50;;;1.60;;
52816;SDS011;38687;43.330;21.924;2023-01-24T05:23:04;5.28;;;2.10;;
52816;SDS011;38687;43.330;21.924;2023-01-24T05:25:29;4.70;;;2.40;;
52816;SDS011;38687;43.330;21.924;2023-01-24T05:27:55;3.65;;;2.10;;
52816;SDS011;38687;43.330;21.924;2023-01-24T05:30:23;3.83;;;1.48;;
52816;SDS011;38687;43.330;21.924;2023-01-24T05:32:48;2.50;;;1.98;;
52816;SDS011;38687;43.330;21.924;2023-01-24T05:35:13;4.05;;;2.22;;
52816;SDS011;38687;43.330;21.924;2023-01-24T05:37:39;3.88;;;2.67;;
52816;SDS011;38687;43.330;21.924;2023-01-24T05:40:04;4.13;;;2.67;;
52816;SDS011;38687;43.330;21.924;2023-01-24T05:42:30;2.90;;;2.20;;
52816;SDS011;38687;43.330;21.924;2023-01-24T05:44:55;3.83;;;2.13;;
52816;SDS011;38687;43.330;21.924;2023-01-24T05:47:23;3.45;;;2.10;;
52816;SDS011;38687;43.330;21.924;2023-01-24T05:49:49;5.90;;;3.03;;
52816;SDS011;38687;43.330;21.924;2023-01-24T05:52:15;5.13;;;3.20;;
52816;SDS011;38687;43.330;21.924;2023-01-24T05:54:49;5.65;;;2.58;;
52816;SDS011;38687;43.330;21.924;2023-01-24T05:57:14;4.82;;;2.65;;
52816;SDS011;38687;43.330;21.924;2023-01-24T05:59:40;7.22;;;3.38;;
52816;SDS011;38687;43.330;21.924;2023-01-24T06:02:05;8.80;;;4.30;;
52816;SDS011;38687;43.330;21.924;2023-01-24T06:04:30;10.00;;;4.95;;
52816;SDS011;38687;43.330;21.924;2023-01-24T06:06:55;14.77;;;8.00;;
52816;SDS011;38687;43.330;21.924;2023-01-24T06:09:23;12.27;;;8.67;;
52816;SDS011;38687;43.330;21.924;2023-01-24T06:11:49;8.00;;;4.88;;
52816;SDS011;38687;43.330;21.924;2023-01-24T06:14:14;7.60;;;4.28;;
52816;SDS011;38687;43.330;21.924;2023-01-24T06:16:39;9.20;;;5.15;;
52816;SDS011;38687;43.330;21.924;2023-01-24T06:19:05;6.70;;;4.22;;
52816;SDS011;38687;43.330;21.924;2023-01-24T06:21:43;7.40;;;5.60;;
52816;SDS011;38687;43.330;21.924;2023-01-24T06:24:23;7.50;;;4.65;;
52816;SDS011;38687;43.330;21.924;2023-01-24T06:26:48;3.92;;;2.60;;
52816;SDS011;38687;43.330;21.924;2023-01-24T06:29:17;7.82;;;4.28;;
52816;SDS011;38687;43.330;21.924;2023-01-24T06:39:26;7.80;;;5.68;;
52816;SDS011;38687;43.330;21.924;2023-01-24T06:41:52;6.70;;;4.75;;
52816;SDS011;38687;43.330;21.924;2023-01-24T06:44:20;5.97;;;4.68;;
52816;SDS011;38687;43.330;21.924;2023-01-24T06:46:46;3.60;;;2.70;;
52816;SDS011;38687;43.330;21.924;2023-01-24T06:49:11;4.35;;;2.85;;
52816;SDS011;38687;43.330;21.924;2023-01-24T06:51:36;5.05;;;3.35;;
52816;SDS011;38687;43.330;21.924;2023-01-24T06:54:01;5.22;;;2.88;;
52816;SDS011;38687;43.330;21.924;2023-01-24T06:56:27;4.78;;;3.17;;
52816;SDS011;38687;43.330;21.924;2023-01-24T06:58:52;5.85;;;3.63;;
52816;SDS011;38687;43.330;21.924;2023-01-24T07:01:17;7.67;;;4.37;;
52816;SDS011;38687;43.330;21.924;2023-01-24T07:03:42;6.75;;;3.17;;
52816;SDS011;38687;43.330;21.924;2023-01-24T07:06:08;3.58;;;2.83;;
52816;SDS011;38687;43.330;21.924;2023-01-24T07:08:33;5.03;;;3.20;;
52816;SDS011;38687;43.330;21.924;2023-01-24T07:10:58;6.10;;;3.95;;
52816;SDS011;38687;43.330;21.924;2023-01-24T07:13:24;6.32;;;3.38;;
52816;SDS011;38687;43.330;21.924;2023-01-24T07:15:49;3.58;;;2.80;;
52816;SDS011;38687;43.330;21.924;2023-01-24T07:18:18;3.95;;;2.55;;
52816;SDS011;38687;43.330;21.924;2023-01-24T07:20:44;5.47;;;3.90;;
52816;SDS011;38687;43.330;21.924;2023-01-24T07:23:27;9.20;;;6.18;;
52816;SDS011;38687;43.330;21.924;2023-01-24T07:25:55;7.65;;;4.80;;
52816;SDS011;38687;43.330;21.924;2023-01-24T07:28:20;6.38;;;4.80;;
52816;SDS011;38687;43.330;21.924;2023-01-24T07:30:46;5.53;;;3.75;;
52816;SDS011;38687;43.330;21.924;2023-01-24T07:33:13;4.03;;;3.33;;
52816;SDS011;38687;43.330;21.924;2023-01-24T07:35:45;5.93;;;3.88;;
52816;SDS011;38687;43.330;21.924;2023-01-24T07:38:13;5.18;;;3.42;;
52816;SDS011;38687;43.330;21.924;2023-01-24T07:40:38;6.10;;;5.22;;
52816;SDS011;38687;43.330;21.924;2023-01-24T07:43:04;6.90;;;4.72;;
52816;SDS011;38687;43.330;21.924;2023-01-24T07:45:29;3.60;;;2.78;;
52816;SDS011;38687;43.330;21.924;2023-01-24T07:47:58;4.03;;;2.63;;
52816;SDS011;38687;43.330;21.924;2023-01-24T07:50:24;6.05;;;3.90;;
52816;SDS011;38687;43.330;21.924;2023-01-24T07:52:50;4.18;;;3.78;;
52816;SDS011;38687;43.330;21.924;2023-01-24T07:55:15;3.85;;;2.65;;
52816;SDS011;38687;43.330;21.924;2023-01-24T07:57:41;5.10;;;4.57;;
52816;SDS011;38687;43.330;21.924;2023-01-24T08:00:06;5.88;;;3.30;;
52816;SDS011;38687;43.330;21.924;2023-01-24T08:02:32;4.63;;;3.50;;
52816;SDS011;38687;43.330;21.924;2023-01-24T08:04:57;8.43;;;4.63;;
52816;SDS011;38687;43.330;21.924;2023-01-24T08:07:22;6.78;;;4.80;;
52816;SDS011;38687;43.330;21.924;2023-01-24T08:09:47;13.75;;;6.40;;
52816;SDS011;38687;43.330;21.924;2023-01-24T08:12:13;12.02;;;6.25;;
52816;SDS011;38687;43.330;21.924;2023-01-24T08:14:39;6.70;;;4.32;;
52816;SDS011;38687;43.330;21.924;2023-01-24T08:17:04;9.18;;;5.32;;
52816;SDS011;38687;43.330;21.924;2023-01-24T08:19:29;5.53;;;3.50;;
52816;SDS011;38687;43.330;21.924;2023-01-24T08:21:56;7.30;;;4.20;;
52816;SDS011;38687;43.330;21.924;2023-01-24T08:24:21;4.80;;;3.33;;
52816;SDS011;38687;43.330;21.924;2023-01-24T08:26:47;3.40;;;2.75;;
52816;SDS011;38687;43.330;21.924;2023-01-24T08:29:14;7.47;;;3.40;;
52816;SDS011;38687;43.330;21.924;2023-01-24T08:31:39;21.63;;;11.85;;
52816;SDS011;38687;43.330;21.924;2023-01-24T08:34:04;10.48;;;6.82;;
52816;SDS011;38687;43.330;21.924;2023-01-24T08:36:29;10.23;;;6.57;;
52816;SDS011;38687;43.330;21.924;2023-01-24T08:38:55;11.32;;;7.00;;
52816;SDS011;38687;43.330;21.924;2023-01-24T08:41:20;14.10;;;7.35;;
52816;SDS011;38687;43.330;21.924;2023-01-24T08:43:45;10.90;;;6.70;;
52816;SDS011;38687;43.330;21.924;2023-01-24T08:46:11;8.40;;;5.57;;
52816;SDS011;38687;43.330;21.924;2023-01-24T08:48:36;8.65;;;4.53;;
52816;SDS011;38687;43.330;21.924;2023-01-24T08:51:04;8.13;;;4.45;;
52816;SDS011;38687;43.330;21.924;2023-01-24T08:53:31;7.38;;;3.88;;
52816;SDS011;38687;43.330;21.924;2023-01-24T08:55:57;7.32;;;4.53;;
52816;SDS011;38687;43.330;21.924;2023-01-24T08:58:22;4.50;;;3.55;;
52816;SDS011;38687;43.330;21.924;2023-01-24T09:00:47;11.63;;;4.78;;
52816;SDS011;38687;43.330;21.924;2023-01-24T09:03:14;5.88;;;3.72;;
52816;SDS011;38687;43.330;21.924;2023-01-24T09:05:41;3.03;;;2.47;;
52816;SDS011;38687;43.330;21.924;2023-01-24T09:08:06;4.90;;;3.45;;
52816;SDS011;38687;43.330;21.924;2023-01-24T09:10:31;4.40;;;3.55;;
52816;SDS011;38687;43.330;21.924;2023-01-24T09:12:56;7.60;;;4.32;;
52816;SDS011;38687;43.330;21.924;2023-01-24T09:15:23;4.97;;;4.38;;
52816;SDS011;38687;43.330;21.924;2023-01-24T09:17:48;6.50;;;5.30;;
52816;SDS011;38687;43.330;21.924;2023-01-24T09:20:13;8.07;;;6.75;;
52816;SDS011;38687;43.330;21.924;2023-01-24T09:22:38;7.15;;;5.25;;
52816;SDS011;38687;43.330;21.924;2023-01-24T09:25:04;11.07;;;6.82;;
52816;SDS011;38687;43.330;21.924;2023-01-24T09:27:33;8.10;;;5.22;;
52816;SDS011;38687;43.330;21.924;2023-01-24T09:29:58;6.22;;;4.80;;
52816;SDS011;38687;43.330;21.924;2023-01-24T09:32:24;8.23;;;5.70;;
52816;SDS011;38687;43.330;21.924;2023-01-24T09:34:49;5.53;;;4.25;;
52816;SDS011;38687;43.330;21.924;2023-01-24T09:37:21;8.65;;;5.53;;
52816;SDS011;38687;43.330;21.924;2023-01-24T09:39:47;5.50;;;3.78;;
52816;SDS011;38687;43.330;21.924;2023-01-24T09:44:56;8.07;;;5.38;;
52816;SDS011;38687;43.330;21.924;2023-01-24T09:47:26;8.68;;;5.88;;
52816;SDS011;38687;43.330;21.924;2023-01-24T09:49:55;5.47;;;4.00;;
52816;SDS011;38687;43.330;21.924;2023-01-24T09:52:30;6.38;;;3.72;;
52816;SDS011;38687;43.330;21.924;2023-01-24T09:54:59;6.20;;;3.60;;
52816;SDS011;38687;43.330;21.924;2023-01-24T09:57:29;29.00;;;18.08;;
52816;SDS011;38687;43.330;21.924;2023-01-24T09:59:57;6.35;;;4.25;;
52816;SDS011;38687;43.330;21.924;2023-01-24T10:02:25;5.25;;;3.60;;
52816;SDS011;38687;43.330;21.924;2023-01-24T10:04:52;8.93;;;4.70;;
52816;SDS011;38687;43.330;21.924;2023-01-24T10:12:34;3.58;;;2.90;;
52816;SDS011;38687;43.330;21.924;2023-01-24T10:25:23;10.45;;;6.05;;
52816;SDS011;38687;43.330;21.924;2023-01-24T10:27:51;17.10;;;8.52;;
52816;SDS011;38687;43.330;21.924;2023-01-24T10:30:30;12.35;;;7.90;;
52816;SDS011;38687;43.330;21.924;2023-01-24T10:33:01;9.20;;;6.22;;
52816;SDS011;38687;43.330;21.924;2023-01-24T10:35:43;12.80;;;5.97;;
52816;SDS011;38687;43.330;21.924;2023-01-24T10:38:12;6.45;;;3.55;;
52816;SDS011;38687;43.330;21.924;2023-01-24T10:40:52;5.18;;;4.00;;
52816;SDS011;38687;43.330;21.924;2023-01-24T10:43:17;9.65;;;6.18;;
52816;SDS011;38687;43.330;21.924;2023-01-24T10:50:45;8.15;;;4.53;;
52816;SDS011;38687;43.330;21.924;2023-01-24T10:53:23;9.55;;;5.85;;
52816;SDS011;38687;43.330;21.924;2023-01-24T10:55:56;11.40;;;5.65;;
52816;SDS011;38687;43.330;21.924;2023-01-24T10:58:23;14.77;;;8.38;;
52816;SDS011;38687;43.330;21.924;2023-01-24T11:00:56;10.32;;;5.68;;
52816;SDS011;38687;43.330;21.924;2023-01-24T11:03:26;15.85;;;7.97;;
52816;SDS011;38687;43.330;21.924;2023-01-24T11:05:54;14.93;;;6.68;;
52816;SDS011;38687;43.330;21.924;2023-01-24T11:08:21;17.13;;;9.05;;
52816;SDS011;38687;43.330;21.924;2023-01-24T11:10:50;15.38;;;8.30;;
52816;SDS011;38687;43.330;21.924;2023-01-24T11:13:25;12.45;;;6.63;;
52816;SDS011;38687;43.330;21.924;2023-01-24T11:15:53;6.88;;;4.47;;
52816;SDS011;38687;43.330;21.924;2023-01-24T11:18:20;13.85;;;7.97;;
52816;SDS011;38687;43.330;21.924;2023-01-24T11:20:47;8.05;;;5.85;;
52816;SDS011;38687;43.330;21.924;2023-01-24T11:23:28;12.25;;;6.95;;
52816;SDS011;38687;43.330;21.924;2023-01-24T11:26:01;9.00;;;5.97;;
52816;SDS011;38687;43.330;21.924;2023-01-24T11:28:27;7.40;;;4.78;;
52816;SDS011;38687;43.330;21.924;2023-01-24T11:30:54;9.38;;;7.20;;
52816;SDS011;38687;43.330;21.924;2023-01-24T11:38:41;9.88;;;6.30;;
52816;SDS011;38687;43.330;21.924;2023-01-24T11:47:20;11.23;;;6.55;;
52816;SDS011;38687;43.330;21.924;2023-01-24T11:52:01;9.25;;;5.70;;
52816;SDS011;38687;43.330;21.924;2023-01-24T12:09:38;11.95;;;7.15;;
52816;SDS011;38687;43.330;21.924;2023-01-24T12:12:14;18.15;;;9.30;;
52816;SDS011;38687;43.330;21.924;2023-01-24T12:22:24;19.13;;;11.68;;
52816;SDS011;38687;43.330;21.924;2023-01-24T12:24:55;24.40;;;14.97;;
52816;SDS011;38687;43.330;21.924;2023-01-24T12:27:23;17.38;;;9.85;;
52816;SDS011;38687;43.330;21.924;2023-01-24T12:32:21;13.95;;;9.90;;
52816;SDS011;38687;43.330;21.924;2023-01-24T12:35:02;12.13;;;7.53;;
52816;SDS011;38687;43.330;21.924;2023-01-24T12:37:40;10.45;;;6.50;;
52816;SDS011;38687;43.330;21.924;2023-01-24T12:40:14;31.95;;;16.77;;
52816;SDS011;38687;43.330;21.924;2023-01-24T12:42:45;15.15;;;8.85;;
52816;SDS011;38687;43.330;21.924;2023-01-24T12:45:14;38.72;;;20.58;;
52816;SDS011;38687;43.330;21.924;2023-01-24T12:47:50;15.05;;;10.38;;
52816;SDS011;38687;43.330;21.924;2023-01-24T12:50:40;10.73;;;6.97;;
52816;SDS011;38687;43.330;21.924;2023-01-24T12:53:14;12.45;;;7.28;;
52816;SDS011;38687;43.330;21.924;2023-01-24T13:01:19;12.80;;;8.20;;
52816;SDS011;38687;43.330;21.924;2023-01-24T13:06:32;10.95;;;8.40;;
52816;SDS011;38687;43.330;21.924;2023-01-24T13:11:28;8.48;;;4.75;;
52816;SDS011;38687;43.330;21.924;2023-01-24T13:22:19;10.77;;;6.68;;
52816;SDS011;38687;43.330;21.924;2023-01-24T13:32:30;21.73;;;10.23;;
52816;SDS011;38687;43.330;21.924;2023-01-24T13:34:56;14.20;;;8.27;;
52816;SDS011;38687;43.330;21.924;2023-01-24T13:39:47;17.23;;;9.40;;
52816;SDS011;38687;43.330;21.924;2023-01-24T13:42:20;15.02;;;8.50;;
52816;SDS011;38687;43.330;21.924;2023-01-24T13:44:46;17.00;;;8.57;;
52816;SDS011;38687;43.330;21.924;2023-01-24T13:50:29;13.25;;;8.88;;
52816;SDS011;38687;43.330;21.924;2023-01-24T13:54:56;11.30;;;7.40;;
52816;SDS011;38687;43.330;21.924;2023-01-24T13:57:26;6.63;;;4.95;;
52816;SDS011;38687;43.330;21.924;2023-01-24T14:02:28;7.50;;;5.30;;
52816;SDS011;38687;43.330;21.924;2023-01-24T14:04:54;9.95;;;5.72;;
52816;SDS011;38687;43.330;21.924;2023-01-24T14:09:58;14.27;;;7.75;;
52816;SDS011;38687;43.330;21.924;2023-01-24T14:12:24;13.38;;;8.63;;
52816;SDS011;38687;43.330;21.924;2023-01-24T14:17:25;9.70;;;5.78;;
52816;SDS011;38687;43.330;21.924;2023-01-24T14:19:54;7.72;;;5.30;;
52816;SDS011;38687;43.330;21.924;2023-01-24T14:22:23;11.95;;;5.97;;
52816;SDS011;38687;43.330;21.924;2023-01-24T14:27:38;7.40;;;5.00;;
52816;SDS011;38687;43.330;21.924;2023-01-24T14:32:51;8.35;;;5.20;;
52816;SDS011;38687;43.330;21.924;2023-01-24T14:37:42;7.80;;;5.22;;
52816;SDS011;38687;43.330;21.924;2023-01-24T14:40:24;9.38;;;4.72;;
52816;SDS011;38687;43.330;21.924;2023-01-24T14:42:50;7.43;;;4.60;;
52816;SDS011;38687;43.330;21.924;2023-01-24T14:45:23;8.80;;;5.10;;
52816;SDS011;38687;43.330;21.924;2023-01-24T14:47:50;25.40;;;13.02;;
52816;SDS011;38687;43.330;21.924;2023-01-24T14:50:26;17.17;;;10.98;;
52816;SDS011;38687;43.330;21.924;2023-01-24T14:52:51;17.15;;;9.50;;
52816;SDS011;38687;43.330;21.924;2023-01-24T14:57:42;12.02;;;7.78;;
52816;SDS011;38687;43.330;21.924;2023-01-24T15:02:36;16.10;;;8.80;;
52816;SDS011;38687;43.330;21.924;2023-01-24T15:05:02;18.60;;;10.18;;
52816;SDS011;38687;43.330;21.924;2023-01-24T15:07:29;21.77;;;11.48;;
52816;SDS011;38687;43.330;21.924;2023-01-24T15:09:55;14.30;;;8.48;;
52816;SDS011;38687;43.330;21.924;2023-01-24T15:14:46;15.17;;;8.63;;
52816;SDS011;38687;43.330;21.924;2023-01-24T15:17:18;8.88;;;6.90;;
52816;SDS011;38687;43.330;21.924;2023-01-24T15:19:47;12.50;;;8.27;;
52816;SDS011;38687;43.330;21.924;2023-01-24T15:22:17;12.73;;;7.07;;
52816;SDS011;38687;43.330;21.924;2023-01-24T15:24:47;14.30;;;8.13;;
52816;SDS011;38687;43.330;21.924;2023-01-24T15:27:21;11.75;;;7.97;;
52816;SDS011;38687;43.330;21.924;2023-01-24T15:29:49;10.82;;;7.93;;
52816;SDS011;38687;43.330;21.924;2023-01-24T15:32:22;9.15;;;6.07;;
52816;SDS011;38687;43.330;21.924;2023-01-24T15:34:50;14.65;;;10.20;;
52816;SDS011;38687;43.330;21.924;2023-01-24T15:37:16;9.23;;;5.93;;
52816;SDS011;38687;43.330;21.924;2023-01-24T15:39:42;10.15;;;6.57;;
52816;SDS011;38687;43.330;21.924;2023-01-24T15:42:15;13.10;;;7.32;;
52816;SDS011;38687;43.330;21.924;2023-01-24T15:44:59;12.93;;;8.98;;
52816;SDS011;38687;43.330;21.924;2023-01-24T15:47:24;15.18;;;8.90;;
52816;SDS011;38687;43.330;21.924;2023-01-24T15:50:16;15.60;;;10.60;;
52816;SDS011;38687;43.330;21.924;2023-01-24T15:53:33;11.68;;;6.93;;
52816;SDS011;38687;43.330;21.924;2023-01-24T15:55:53;14.45;;;9.30;;
52816;SDS011;38687;43.330;21.924;2023-01-24T15:58:20;103.22;;;48.78;;
52816;SDS011;38687;43.330;21.924;2023-01-24T16:01:03;13.68;;;8.65;;
52816;SDS011;38687;43.330;21.924;2023-01-24T16:03:29;14.90;;;8.13;;
52816;SDS011;38687;43.330;21.924;2023-01-24T16:05:56;19.27;;;11.93;;
52816;SDS011;38687;43.330;21.924;2023-01-24T16:08:22;16.50;;;9.77;;
52816;SDS011;38687;43.330;21.924;2023-01-24T16:10:50;18.27;;;10.88;;
52816;SDS011;38687;43.330;21.924;2023-01-24T16:13:33;14.30;;;8.93;;
52816;SDS011;38687;43.330;21.924;2023-01-24T16:16:02;14.40;;;9.15;;
52816;SDS011;38687;43.330;21.924;2023-01-24T16:18:28;26.50;;;15.40;;
52816;SDS011;38687;43.330;21.924;2023-01-24T16:20:54;20.60;;;14.30;;
52816;SDS011;38687;43.330;21.924;2023-01-24T16:23:22;12.93;;;7.20;;
52816;SDS011;38687;43.330;21.924;2023-01-24T16:25:47;21.40;;;10.60;;
52816;SDS011;38687;43.330;21.924;2023-01-24T16:28:21;22.25;;;12.88;;
52816;SDS011;38687;43.330;21.924;2023-01-24T16:30:47;14.05;;;8.60;;
52816;SDS011;38687;43.330;21.924;2023-01-24T16:33:16;15.52;;;10.80;;
52816;SDS011;38687;43.330;21.924;2023-01-24T16:35:42;19.67;;;11.52;;
52816;SDS011;38687;43.330;21.924;2023-01-24T16:38:08;21.52;;;12.68;;
52816;SDS011;38687;43.330;21.924;2023-01-24T16:40:34;19.00;;;10.35;;
52816;SDS011;38687;43.330;21.924;2023-01-24T16:43:00;19.15;;;11.88;;
52816;SDS011;38687;43.330;21.924;2023-01-24T16:45:27;17.50;;;11.02;;
52816;SDS011;38687;43.330;21.924;2023-01-24T16:47:53;23.30;;;13.73;;
52816;SDS011;38687;43.330;21.924;2023-01-24T16:50:18;15.52;;;9.95;;
52816;SDS011;38687;43.330;21.924;2023-01-24T16:52:44;10.73;;;8.60;;
52816;SDS011;38687;43.330;21.924;2023-01-24T16:55:09;12.95;;;8.30;;